66NY weather

Maple Ridge Airport
Medina, New York, United States

Public forecast

Using degrees Fahrenheit for public forecast. Weather courtesy of forecast.io.

METAR (pilot weather report)

Closest report is Buffalo Niagara International Airport, 22.9 nm (42.4 km) SW. Retrieved 2019/06/15 19:37 UTC (18 minutes ago):

KBUF 151937Z 24017G23KT 4SM -RA BR SCT008 BKN012 OVC025 16/14 A2988

TAF (pilot weather forecast)

Forecast is more than 6 hours old.

Closest forecast is Buffalo Niagara International Airport, 22.9 nm (42.4 km) SW. Retrieved 2019/06/15 12:22 UTC (8 hours ago):

TAF KBUF 151120Z 1512/1612 22016G26KT P6SM BKN120 FM151500 23022G35KT P6SM BKN080 FM152000 23018G28KT P6SM -SHRA OVC040 FM152300 23013KT 4SM -RA BR OVC015 FM160200 VRB04KT 4SM -RA BR OVC007